Time;durP1;ratioP1;P1;durP2;ratioP2;P2;SDS_P1;SDS_P2;PMS_P1;PMS_P2;Temp;Humidity;BMP_temperature;BMP_pressure;BME280_temperature;BME280_humidity;BME280_pressure;Samples;Min_cycle;Max_cycle;Signal;HPM_P1;HPM_P2
2021/03/04 00:00:49;;;;;;;;;;;;;;;10.87;51.81;101639.97;5006352;28;7035;-79
2021/03/04 00:03:15;;;;;;;;;;;;;;;10.81;51.92;101640.66;5020713;28;6981;-79
2021/03/04 00:05:40;;;;;;;;;;;;;;;10.78;52.47;101630.09;5006955;28;11009;-78
2021/03/04 00:08:06;;;;;;;;;;;;;;;10.77;52.36;101637.84;5006305;28;8278;-79
2021/03/04 00:10:32;;;;;;;;;;;;;;;10.74;52.50;101633.44;5008009;28;8786;-79
2021/03/04 00:12:57;;;;;;;;;;;;;;;10.68;51.94;101630.63;5004229;28;8548;-79
2021/03/04 00:15:25;;;;;;;;;;;;;;;10.64;52.34;101637.41;5008044;28;7230;-79
2021/03/04 00:17:50;;;;;;;;;;;;;;;10.62;52.33;101638.19;4987899;28;7133;-79
2021/03/04 00:20:23;;;;;;;;;;;;;;;10.57;52.38;101634.53;5016448;28;7098;-79
2021/03/04 00:22:48;;;;;;;;;;;;;;;10.56;52.33;101633.63;5004888;28;8514;-79
2021/03/04 00:25:14;;;;;;;;;;;;;;;10.51;52.22;101619.59;5005478;28;8731;-79
2021/03/04 00:27:40;;;;;;;;;;;;;;;10.47;52.46;101624.63;5003816;28;6788;-79
2021/03/04 00:30:06;;;;;;;;;;;;;;;10.45;52.22;101624.56;5005699;28;7103;-78
2021/03/04 00:32:31;;;;;;;;;;;;;;;10.41;52.66;101614.91;5004156;28;8278;-79
2021/03/04 00:34:57;;;;;;;;;;;;;;;10.38;52.60;101617.38;5009320;28;6866;-78
2021/03/04 00:37:22;;;;;;;;;;;;;;;10.35;52.74;101610.34;5021199;28;6788;-79
2021/03/04 00:39:48;;;;;;;;;;;;;;;10.32;52.36;101612.84;5005458;28;7269;-78
2021/03/04 00:42:14;;;;;;;;;;;;;;;10.28;52.60;101613.56;4994556;28;6797;-78
2021/03/04 00:44:39;;;;;;;;;;;;;;;10.25;52.68;101621.22;4995024;28;6808;-79
2021/03/04 00:47:05;;;;;;;;;;;;;;;10.21;52.92;101618.44;5010390;28;7189;-78
2021/03/04 00:49:30;;;;;;;;;;;;;;;10.19;52.57;101612.25;4993177;28;7032;-78
2021/03/04 00:51:56;;;;;;;;;;;;;;;10.17;52.78;101619.09;4975680;28;7214;-78
2021/03/04 00:54:21;;;;;;;;;;;;;;;10.15;52.97;101615.56;5007441;28;6791;-79
2021/03/04 00:56:47;;;;;;;;;;;;;;;10.12;52.87;101612.84;4992115;28;7136;-79
2021/03/04 00:59:12;;;;;;;;;;;;;;;10.10;53.15;101609.31;4993451;28;7164;-78
2021/03/04 01:01:38;;;;;;;;;;;;;;;10.07;53.11;101610.09;5002898;28;6862;-79
2021/03/04 01:04:04;;;;;;;;;;;;;;;10.03;53.17;101611.69;5002058;28;7054;-77
2021/03/04 01:06:29;;;;;;;;;;;;;;;10.01;53.25;101615.94;4988232;28;7589;-77
2021/03/04 01:08:55;;;;;;;;;;;;;;;9.99;53.28;101607.19;4990234;28;7277;-77
2021/03/04 01:11:20;;;;;;;;;;;;;;;9.96;53.47;101606.19;4992429;28;7416;-77
2021/03/04 01:13:46;;;;;;;;;;;;;;;9.95;53.17;101609.59;5004871;28;6787;-77
2021/03/04 01:16:11;;;;;;;;;;;;;;;9.92;53.25;101605.19;4986829;28;9572;-77
2021/03/04 01:18:37;;;;;;;;;;;;;;;9.89;53.26;101592.09;4982671;28;7293;-77
2021/03/04 01:21:03;;;;;;;;;;;;;;;9.87;53.41;101592.88;4989204;28;6791;-77
2021/03/04 01:23:29;;;;;;;;;;;;;;;9.84;53.38;101583.25;4986811;28;6967;-77
2021/03/04 01:25:54;;;;;;;;;;;;;;;9.81;53.29;101577.03;4986663;28;7068;-77
2021/03/04 01:28:20;;;;;;;;;;;;;;;9.81;53.35;101574.44;4993592;28;6784;-77
2021/03/04 01:30:45;;;;;;;;;;;;;;;9.77;53.43;101576.91;4993650;28;6875;-77
2021/03/04 01:33:11;;;;;;;;;;;;;;;9.75;53.55;101569.91;4981264;28;6802;-77
2021/03/04 01:35:36;;;;;;;;;;;;;;;9.74;53.56;101575.91;4977817;28;7248;-77
2021/03/04 01:38:02;;;;;;;;;;;;;;;9.69;53.67;101569.66;4985438;28;6954;-77
2021/03/04 01:40:28;;;;;;;;;;;;;;;9.68;53.99;101567.91;4987843;28;7335;-77
2021/03/04 01:42:53;;;;;;;;;;;;;;;9.64;53.74;101568.59;4988685;28;8563;-77
2021/03/04 01:45:19;;;;;;;;;;;;;;;9.64;53.63;101566.91;4987624;28;7085;-77
2021/03/04 01:47:49;;;;;;;;;;;;;;;9.59;53.71;101560.63;4970551;28;7278;-77
2021/03/04 01:50:14;;;;;;;;;;;;;;;9.58;53.95;101555.38;4999546;28;11507;-77
2021/03/04 01:52:41;;;;;;;;;;;;;;;9.58;53.77;101551.06;5002716;28;7747;-77
2021/03/04 01:55:07;;;;;;;;;;;;;;;9.54;53.82;101551.78;4983452;28;7131;-77
2021/03/04 01:57:32;;;;;;;;;;;;;;;9.53;53.95;101556.91;4986913;28;6870;-77
2021/03/04 01:59:58;;;;;;;;;;;;;;;9.53;53.67;101546.53;4986526;28;7322;-77
2021/03/04 02:02:24;;;;;;;;;;;;;;;9.50;53.85;101547.31;4989040;28;7183;-77
2021/03/04 02:04:50;;;;;;;;;;;;;;;9.45;53.99;101554.91;5003144;28;8480;-77
2021/03/04 02:07:49;;;;;;;;;;;;;;;9.43;54.18;101547.88;4999743;28;6834;-77
2021/03/04 02:10:39;;;;;;;;;;;;;;;9.41;53.94;101532.28;4986702;28;11118;-77
2021/03/04 02:13:29;;;;;;;;;;;;;;;9.40;53.78;101533.06;4983821;28;10989;-77
2021/03/04 02:16:11;;;;;;;;;;;;;;;9.38;53.98;101531.25;4985708;28;11184;-77
2021/03/04 02:18:40;;;;;;;;;;;;;;;9.37;54.27;101525.16;5001999;28;7416;-77
2021/03/04 02:21:25;;;;;;;;;;;;;;;9.33;54.24;101518.09;4985730;28;6808;-77
2021/03/04 02:24:08;;;;;;;;;;;;;;;9.33;53.87;101517.22;4969912;28;12921;-77
2021/03/04 02:26:43;;;;;;;;;;;;;;;9.29;54.38;101511.03;4968842;28;6979;-77
2021/03/04 02:29:09;;;;;;;;;;;;;;;9.29;54.20;101505.84;4986690;28;8410;-77
2021/03/04 02:31:36;;;;;;;;;;;;;;;9.26;53.90;101500.53;4984948;28;6973;-77
2021/03/04 02:34:02;;;;;;;;;;;;;;;9.26;54.15;101495.38;4995390;28;7126;-77
2021/03/04 02:36:28;;;;;;;;;;;;;;;9.27;54.14;101491.94;4989975;28;8208;-77
2021/03/04 02:38:53;;;;;;;;;;;;;;;9.24;54.20;101480.56;5001177;28;7409;-77
2021/03/04 02:41:19;;;;;;;;;;;;;;;9.22;54.27;101483.09;5002817;28;8405;-77
2021/03/04 02:43:44;;;;;;;;;;;;;;;9.23;53.91;101486.59;4987316;28;8022;-77
2021/03/04 02:46:10;;;;;;;;;;;;;;;9.20;54.33;101489.91;4972116;28;7043;-77
2021/03/04 02:48:35;;;;;;;;;;;;;;;9.19;54.60;101485.56;4986240;28;6989;-77
2021/03/04 02:51:01;;;;;;;;;;;;;;;9.18;54.42;101473.41;4985824;28;8115;-77
2021/03/04 02:53:27;;;;;;;;;;;;;;;9.17;54.36;101471.66;4989358;28;6780;-77
2021/03/04 02:55:52;;;;;;;;;;;;;;;9.13;54.58;101469.75;4971900;28;8440;-77
2021/03/04 02:58:18;;;;;;;;;;;;;;;9.14;54.47;101479.31;4998876;28;7308;-77
2021/03/04 03:00:44;;;;;;;;;;;;;;;9.13;54.29;101486.19;5001976;28;7233;-77
2021/03/04 03:03:10;;;;;;;;;;;;;;;9.13;54.10;101483.59;5001308;28;6947;-77
2021/03/04 03:05:37;;;;;;;;;;;;;;;9.13;54.60;101483.59;5003122;28;8448;-77
2021/03/04 03:08:02;;;;;;;;;;;;;;;9.12;54.44;101489.59;5004537;28;6814;-77
2021/03/04 03:10:28;;;;;;;;;;;;;;;9.12;54.22;101486.13;4990130;28;7289;-77
2021/03/04 03:12:57;;;;;;;;;;;;;;;9.12;54.30;101478.34;4990445;28;6993;-77
2021/03/04 03:15:23;;;;;;;;;;;;;;;9.11;54.53;101476.59;5007858;28;6867;-77
2021/03/04 03:17:49;;;;;;;;;;;;;;;9.11;54.22;101469.69;5010779;28;6795;-77
2021/03/04 03:20:16;;;;;;;;;;;;;;;9.11;54.39;101468.81;5001566;28;6796;-77
2021/03/04 03:22:41;;;;;;;;;;;;;;;9.11;54.23;101468.81;5003298;28;6819;-77
2021/03/04 03:25:08;;;;;;;;;;;;;;;9.09;54.39;101470.47;5002208;28;7067;-77
2021/03/04 03:27:33;;;;;;;;;;;;;;;9.10;54.46;101477.41;5000032;28;6855;-77
2021/03/04 03:29:59;;;;;;;;;;;;;;;9.08;54.70;101482.53;5015476;28;7222;-77
2021/03/04 03:32:25;;;;;;;;;;;;;;;9.06;54.71;101470.34;5000353;28;7055;-77
2021/03/04 03:34:51;;;;;;;;;;;;;;;9.05;54.50;101464.28;5001594;28;6784;-77
2021/03/04 03:37:17;;;;;;;;;;;;;;;9.07;54.56;101466.94;5000306;28;8442;-77
2021/03/04 03:39:42;;;;;;;;;;;;;;;9.06;54.53;101460.88;4997007;28;7219;-77
2021/03/04 03:42:08;;;;;;;;;;;;;;;9.05;54.26;101456.50;4996471;28;7257;-77
2021/03/04 03:44:33;;;;;;;;;;;;;;;9.05;54.44;101455.63;4971427;28;7981;-78
2021/03/04 03:46:59;;;;;;;;;;;;;;;9.03;54.60;101445.22;4998307;28;6979;-77
2021/03/04 03:49:25;;;;;;;;;;;;;;;9.02;54.71;101447.72;4998285;28;6858;-77
2021/03/04 03:51:51;;;;;;;;;;;;;;;9.01;54.62;101440.75;5000535;28;7036;-77
2021/03/04 03:54:16;;;;;;;;;;;;;;;9.01;54.64;101435.56;5000262;28;7190;-77
2021/03/04 03:56:42;;;;;;;;;;;;;;;9.00;55.00;101428.63;4985733;28;7277;-77
2021/03/04 03:59:08;;;;;;;;;;;;;;;9.00;54.96;101423.44;4973302;28;6834;-77
2021/03/04 04:01:34;;;;;;;;;;;;;;;8.99;54.98;101416.50;4990813;28;8502;-77
2021/03/04 04:04:00;;;;;;;;;;;;;;;8.99;54.84;101421.69;4987836;28;7171;-77
2021/03/04 04:06:27;;;;;;;;;;;;;;;8.97;55.03;101423.31;4989852;28;6822;-77
2021/03/04 04:08:53;;;;;;;;;;;;;;;8.95;54.75;101420.69;4988042;28;7087;-77
2021/03/04 04:11:23;;;;;;;;;;;;;;;8.96;54.81;101426.75;5013752;28;10980;-77
2021/03/04 04:13:48;;;;;;;;;;;;;;;8.94;55.17;101425.78;4999994;28;8760;-77
2021/03/04 04:16:15;;;;;;;;;;;;;;;8.94;55.03;101423.22;4999995;28;7226;-77
2021/03/04 04:18:40;;;;;;;;;;;;;;;8.93;54.84;101419.72;4976004;28;7162;-77
2021/03/04 04:21:06;;;;;;;;;;;;;;;8.92;54.78;101414.50;4980505;28;6974;-77
2021/03/04 04:23:31;;;;;;;;;;;;;;;8.90;54.99;101410.97;5016364;28;7324;-77
2021/03/04 04:25:57;;;;;;;;;;;;;;;8.89;54.57;101414.38;4997276;28;6808;-77
2021/03/04 04:28:23;;;;;;;;;;;;;;;8.88;55.32;101415.19;4997965;28;7002;-77
2021/03/04 04:30:48;;;;;;;;;;;;;;;8.87;54.86;101410.84;5000538;28;6798;-77
2021/03/04 04:33:14;;;;;;;;;;;;;;;8.86;55.03;101409.97;5004517;28;7650;-77
2021/03/04 04:35:39;;;;;;;;;;;;;;;8.84;54.93;101407.31;5007545;28;6803;-77
2021/03/04 04:38:05;;;;;;;;;;;;;;;8.84;54.88;101406.44;5002966;28;7429;-77
2021/03/04 04:40:30;;;;;;;;;;;;;;;8.82;54.99;101401.19;4998279;28;7147;-77
2021/03/04 04:42:56;;;;;;;;;;;;;;;8.82;54.82;101402.88;5013485;28;7264;-77
2021/03/04 04:45:22;;;;;;;;;;;;;;;8.81;55.21;101395.94;5000283;28;6982;-77
2021/03/04 04:47:47;;;;;;;;;;;;;;;8.80;55.01;101391.56;5001188;28;7217;-77
2021/03/04 04:50:13;;;;;;;;;;;;;;;8.78;55.19;101391.50;5000854;28;7290;-77
2021/03/04 04:52:38;;;;;;;;;;;;;;;8.77;54.96;101396.63;5000577;28;7379;-77
2021/03/04 04:55:04;;;;;;;;;;;;;;;8.75;55.05;101390.50;4999752;28;7253;-77
2021/03/04 04:57:30;;;;;;;;;;;;;;;8.74;55.38;101389.63;4999219;28;6992;-77
2021/03/04 04:59:55;;;;;;;;;;;;;;;8.74;55.65;101391.31;4999669;28;7009;-77
2021/03/04 05:02:21;;;;;;;;;;;;;;;8.73;55.58;101389.56;5015235;28;6784;-77
2021/03/04 05:04:46;;;;;;;;;;;;;;;8.72;54.98;101391.25;4994517;28;6992;-77
2021/03/04 05:07:12;;;;;;;;;;;;;;;8.70;55.18;101385.13;4999352;28;7282;-77
2021/03/04 05:09:37;;;;;;;;;;;;;;;8.69;55.27;101379.91;4998997;28;6821;-77
2021/03/04 05:12:03;;;;;;;;;;;;;;;8.69;55.27;101379.91;4999713;28;8552;-77
2021/03/04 05:14:29;;;;;;;;;;;;;;;8.68;55.09;101372.94;5017199;28;8063;-77
2021/03/04 05:16:55;;;;;;;;;;;;;;;8.67;55.30;101369.47;5015814;28;7201;-77
2021/03/04 05:19:20;;;;;;;;;;;;;;;8.66;55.49;101372.91;4996207;28;8392;-78
2021/03/04 05:21:46;;;;;;;;;;;;;;;8.65;55.73;101384.06;5000569;28;8473;-78
2021/03/04 05:24:11;;;;;;;;;;;;;;;8.64;55.85;101376.25;4999029;28;7186;-78
2021/03/04 05:26:37;;;;;;;;;;;;;;;8.63;55.71;101367.59;4998669;28;7099;-75
2021/03/04 05:29:03;;;;;;;;;;;;;;;8.62;55.59;101364.94;4999189;28;7047;-79
2021/03/04 05:31:29;;;;;;;;;;;;;;;8.62;55.75;101363.25;5016420;28;7039;-79
2021/03/04 05:33:55;;;;;;;;;;;;;;;8.61;55.57;101360.56;4999961;28;6988;-79
2021/03/04 05:36:20;;;;;;;;;;;;;;;8.60;55.92;101362.25;4998187;28;6876;-80
2021/03/04 05:38:46;;;;;;;;;;;;;;;8.62;55.84;101352.00;5000507;28;7465;-78
2021/03/04 05:41:11;;;;;;;;;;;;;;;8.62;55.44;101346.81;5001430;28;6922;-81
2021/03/04 05:43:37;;;;;;;;;;;;;;;8.60;56.02;101341.56;5001338;28;7400;-79
2021/03/04 05:46:02;;;;;;;;;;;;;;;8.61;55.70;101345.94;4999323;28;8779;-79
2021/03/04 05:48:28;;;;;;;;;;;;;;;8.60;55.68;101327.72;4997084;28;7751;-75
2021/03/04 05:50:54;;;;;;;;;;;;;;;8.60;55.63;101323.44;4998411;28;7526;-79
2021/03/04 05:53:20;;;;;;;;;;;;;;;8.60;55.77;101341.56;5015861;28;7553;-78
2021/03/04 05:55:45;;;;;;;;;;;;;;;8.61;55.72;101338.16;4998001;28;7333;-78
2021/03/04 05:58:11;;;;;;;;;;;;;;;8.61;55.89;101342.44;5003409;28;6797;-78
2021/03/04 06:00:37;;;;;;;;;;;;;;;8.60;55.92;101341.56;5001021;28;8573;-78
2021/03/04 06:03:06;;;;;;;;;;;;;;;8.59;55.78;101324.25;5001044;28;7153;-78
2021/03/04 06:05:31;;;;;;;;;;;;;;;8.61;55.94;101330.41;5002140;28;6820;-78
2021/03/04 06:07:57;;;;;;;;;;;;;;;8.60;56.26;101335.50;5000121;28;7154;-76
2021/03/04 06:10:23;;;;;;;;;;;;;;;8.58;55.95;101319.00;4998309;28;14182;-75
2021/03/04 06:12:48;;;;;;;;;;;;;;;8.58;55.92;101325.06;5015775;28;7347;-77
2021/03/04 06:15:14;;;;;;;;;;;;;;;8.59;55.98;101319.06;4997107;28;6964;-77
2021/03/04 06:17:39;;;;;;;;;;;;;;;8.60;56.04;101322.53;5016019;28;7059;-77
2021/03/04 06:20:08;;;;;;;;;;;;;;;8.61;56.24;101320.06;5000629;28;8500;-77
2021/03/04 06:22:37;;;;;;;;;;;;;;;8.62;55.91;101324.41;5006750;28;6795;-78
2021/03/04 06:25:07;;;;;;;;;;;;;;;8.62;55.90;101318.34;5003353;28;7062;-77
2021/03/04 06:27:34;;;;;;;;;;;;;;;8.63;55.71;101317.53;5002183;28;6871;-76
2021/03/04 06:30:04;;;;;;;;;;;;;;;8.64;55.96;101314.09;5004362;28;7063;-77
2021/03/04 06:32:30;;;;;;;;;;;;;;;8.72;55.68;101321.34;5018756;28;7489;-78
2021/03/04 06:35:13;;;;;;;;;;;;;;;8.71;55.53;101311.81;5000638;28;7288;-79
2021/03/04 06:37:43;;;;;;;;;;;;;;;8.73;55.94;101319.63;5000348;28;11396;-80
2021/03/04 06:40:29;;;;;;;;;;;;;;;8.75;55.96;101328.34;4990778;28;6872;-80
2021/03/04 06:42:55;;;;;;;;;;;;;;;8.75;55.99;101368.06;4978174;28;11504;-79
2021/03/04 06:45:31;;;;;;;;;;;;;;;8.77;55.94;101375.91;5001240;28;8540;-78
2021/03/04 06:48:14;;;;;;;;;;;;;;;8.79;55.73;101371.66;5016428;28;13598;-79
2021/03/04 06:50:41;;;;;;;;;;;;;;;8.81;55.75;101367.47;5003458;28;11042;-80
2021/03/04 06:53:20;;;;;;;;;;;;;;;8.81;55.71;101376.09;4999057;28;7217;-79
2021/03/04 06:55:49;;;;;;;;;;;;;;;8.82;55.76;101364.94;4984284;28;7375;-79
2021/03/04 06:58:23;;;;;;;;;;;;;;;8.85;55.62;101364.16;4987612;28;7236;-79
2021/03/04 07:01:19;;;;;;;;;;;;;;;8.90;55.61;101375.59;4999028;28;7235;-79
2021/03/04 07:03:51;;;;;;;;;;;;;;;8.90;55.82;101374.69;4991274;28;11178;-79
2021/03/04 07:06:21;;;;;;;;;;;;;;;8.91;55.54;101369.56;5005728;28;7047;-79
2021/03/04 07:08:48;;;;;;;;;;;;;;;8.92;55.53;101376.53;4995393;28;8434;-80
2021/03/04 07:11:17;;;;;;;;;;;;;;;8.93;55.93;101377.41;4983702;28;8482;-80
2021/03/04 07:13:42;;;;;;;;;;;;;;;8.96;55.34;101364.56;5009480;28;7119;-80
2021/03/04 07:16:08;;;;;;;;;;;;;;;8.96;55.62;101370.63;4995536;28;7313;-80
2021/03/04 07:18:47;;;;;;;;;;;;;;;8.97;55.48;101367.22;4996699;28;7107;-80
2021/03/04 07:21:14;;;;;;;;;;;;;;;9.01;55.63;101357.84;4994465;28;7866;-81
2021/03/04 07:23:40;;;;;;;;;;;;;;;9.04;55.61;101348.53;4991986;28;8427;-80
2021/03/04 07:26:07;;;;;;;;;;;;;;;9.05;55.37;101323.50;4996781;28;7154;-79
2021/03/04 07:28:34;;;;;;;;;;;;;;;9.07;55.53;101337.38;4990575;28;7392;-75
2021/03/04 07:30:59;;;;;;;;;;;;;;;9.11;55.69;101332.38;4986169;28;7192;-75
2021/03/04 07:33:26;;;;;;;;;;;;;;;9.14;55.18;101326.41;4984292;28;11234;-75
2021/03/04 07:35:51;;;;;;;;;;;;;;;9.19;55.09;101329.19;4984753;28;7207;-74
2021/03/04 07:38:24;;;;;;;;;;;;;;;9.23;55.30;101326.78;4973557;28;7257;-75
2021/03/04 07:41:19;;;;;;;;;;;;;;;9.30;55.45;101323.59;4988283;28;7361;-75
2021/03/04 07:43:50;;;;;;;;;;;;;;;9.30;55.18;101313.22;5001766;28;11639;-75
2021/03/04 07:46:32;;;;;;;;;;;;;;;9.33;54.87;101326.28;5007470;28;6831;-75
2021/03/04 07:48:58;;;;;;;;;;;;;;;9.38;55.34;101323.88;4989209;28;12730;-75
2021/03/04 07:51:23;;;;;;;;;;;;;;;9.47;54.84;101325.94;4981456;28;7299;-75
2021/03/04 07:53:49;;;;;;;;;;;;;;;9.60;54.40;101335.91;4982022;28;6846;-76
2021/03/04 07:56:41;;;;;;;;;;;;;;;9.73;54.28;101338.13;4980699;28;6866;-76
2021/03/04 07:59:14;;;;;;;;;;;;;;;9.77;54.49;101340.88;4980277;28;10977;-76
2021/03/04 08:01:43;;;;;;;;;;;;;;;9.73;54.30;101333.81;4982902;28;7930;-78
2021/03/04 08:04:21;;;;;;;;;;;;;;;9.73;54.75;101338.13;4998404;28;6856;-79
2021/03/04 08:06:51;;;;;;;;;;;;;;;9.72;54.59;101336.34;5013561;28;7493;-78
2021/03/04 08:09:46;;;;;;;;;;;;;;;9.77;54.76;101329.63;4998355;28;7225;-78
2021/03/04 08:12:12;;;;;;;;;;;;;;;9.81;54.29;101328.94;4999466;28;11148;-78
2021/03/04 08:14:39;;;;;;;;;;;;;;;9.87;54.49;101329.13;5014002;28;6859;-77
2021/03/04 08:17:05;;;;;;;;;;;;;;;9.95;54.36;101325.06;4999681;28;7247;-78
2021/03/04 08:19:31;;;;;;;;;;;;;;;10.03;54.31;101330.56;5000460;28;6918;-78
2021/03/04 08:22:02;;;;;;;;;;;;;;;10.14;54.11;101323.13;4999287;28;7382;-78
2021/03/04 08:24:28;;;;;;;;;;;;;;;10.23;53.78;101331.28;4999857;28;11064;-78
2021/03/04 08:26:56;;;;;;;;;;;;;;;10.26;53.81;101329.66;4984769;28;7976;-79
2021/03/04 08:29:21;;;;;;;;;;;;;;;10.32;53.73;101328.97;5018193;28;7206;-78
2021/03/04 08:31:52;;;;;;;;;;;;;;;10.39;53.53;101333.53;5000668;28;6795;-78
2021/03/04 08:34:17;;;;;;;;;;;;;;;10.36;54.13;101338.63;4998953;28;6855;-77
2021/03/04 08:36:44;;;;;;;;;;;;;;;10.43;53.49;101335.41;4998091;28;7134;-78
2021/03/04 08:39:13;;;;;;;;;;;;;;;10.56;53.59;101326.28;5014852;28;7382;-78
2021/03/04 08:41:38;;;;;;;;;;;;;;;10.67;52.83;101319.75;4998273;28;7038;-77
2021/03/04 08:44:14;;;;;;;;;;;;;;;10.80;53.20;101316.66;4998244;28;7686;-78
2021/03/04 08:46:43;;;;;;;;;;;;;;;10.87;52.96;101312.56;5000449;28;7723;-79
2021/03/04 08:49:09;;;;;;;;;;;;;;;10.95;53.08;101318.88;4999460;28;8105;-79
2021/03/04 08:52:32;;;;;;;;;;;;;;;11.05;52.80;101312.25;5000843;28;7324;-78
2021/03/04 08:55:00;;;;;;;;;;;;;;;10.94;53.08;101314.50;4968079;28;7169;-77
2021/03/04 08:57:27;;;;;;;;;;;;;;;10.96;53.12;101307.63;4992462;28;7703;-77
2021/03/04 09:00:12;;;;;;;;;;;;;;;11.00;53.24;101309.50;4983896;28;6804;-78
2021/03/04 09:02:37;;;;;;;;;;;;;;;11.07;52.90;101308.84;5002810;28;11391;-77
2021/03/04 09:05:06;;;;;;;;;;;;;;;11.24;52.42;101298.97;5009960;28;6930;-77
2021/03/04 09:07:40;;;;;;;;;;;;;;;11.39;51.97;101302.00;4996327;28;12798;-77
2021/03/04 09:10:06;;;;;;;;;;;;;;;11.67;51.68;101303.66;4999838;28;11456;-77
2021/03/04 09:12:39;;;;;;;;;;;;;;;11.88;51.28;101295.59;5005206;28;6950;-78
2021/03/04 09:15:08;;;;;;;;;;;;;;;11.97;50.89;101294.94;4995544;28;11376;-77
2021/03/04 09:17:38;;;;;;;;;;;;;;;12.06;50.79;101298.66;4992028;28;8474;-77
2021/03/04 09:20:04;;;;;;;;;;;;;;;12.18;50.87;101295.47;4995298;28;11158;-78
2021/03/04 09:22:30;;;;;;;;;;;;;;;12.24;50.37;101298.25;4988475;28;6852;-79
2021/03/04 09:24:56;;;;;;;;;;;;;;;12.29;50.37;101287.97;4985624;28;6808;-78
2021/03/04 09:27:21;;;;;;;;;;;;;;;12.38;50.42;101286.44;5005295;28;6780;-78
2021/03/04 09:29:47;;;;;;;;;;;;;;;12.49;50.21;101281.50;4972472;28;7409;-78
2021/03/04 09:32:12;;;;;;;;;;;;;;;12.61;50.31;101286.09;4989302;28;7234;-78
2021/03/04 09:34:42;;;;;;;;;;;;;;;12.63;50.35;101282.72;4985408;28;8488;-78
2021/03/04 09:37:11;;;;;;;;;;;;;;;12.57;50.50;101286.88;5002475;28;7228;-78
2021/03/04 09:39:47;;;;;;;;;;;;;;;12.46;51.23;101284.03;5010729;28;6870;-78
2021/03/04 09:42:14;;;;;;;;;;;;;;;12.49;50.98;101287.59;5010216;28;7761;-79
2021/03/04 09:44:53;;;;;;;;;;;;;;;12.54;51.01;101282.50;5001614;28;7466;-79
2021/03/04 09:47:20;;;;;;;;;;;;;;;12.52;51.18;101283.31;5008473;28;6839;-79
2021/03/04 09:49:46;;;;;;;;;;;;;;;12.54;51.36;101281.59;5005462;28;6816;-78
2021/03/04 09:52:28;;;;;;;;;;;;;;;12.61;51.44;101275.69;5000465;28;7329;-79
2021/03/04 09:55:09;;;;;;;;;;;;;;;12.68;51.43;101282.81;4967476;28;8607;-79
2021/03/04 09:57:53;;;;;;;;;;;;;;;12.72;51.00;101275.09;5009423;28;11129;-78
2021/03/04 10:00:20;;;;;;;;;;;;;;;12.73;51.26;101273.38;5014500;28;7102;-79
2021/03/04 10:02:47;;;;;;;;;;;;;;;12.85;50.84;101270.19;4983551;28;8483;-79
2021/03/04 10:05:13;;;;;;;;;;;;;;;13.07;50.30;101275.88;4995502;28;7359;-79
2021/03/04 10:07:39;;;;;;;;;;;;;;;13.49;49.54;101282.88;5001708;28;7426;-79
2021/03/04 10:10:10;;;;;;;;;;;;;;;13.72;48.94;101275.47;4997759;28;7274;-79
2021/03/04 10:12:44;;;;;;;;;;;;;;;13.68;49.33;101274.53;5005076;28;11001;-80
2021/03/04 10:15:11;;;;;;;;;;;;;;;13.66;49.82;101272.75;5003017;28;6887;-79
2021/03/04 10:17:39;;;;;;;;;;;;;;;13.68;49.43;101278.88;4970413;28;7092;-79
2021/03/04 10:20:05;;;;;;;;;;;;;;;13.74;49.86;101278.13;4968933;28;6800;-80
2021/03/04 10:26:00;;;;;;;;;;;;;;;13.76;49.45;101279.03;4984582;28;7130;-79
2021/03/04 10:28:26;;;;;;;;;;;;;;;13.86;49.40;101280.97;4958533;28;7880;-79
2021/03/04 10:30:51;;;;;;;;;;;;;;;14.36;48.59;101266.16;4987014;28;6836;-79
2021/03/04 10:33:17;;;;;;;;;;;;;;;14.96;47.11;101277.53;4985437;28;8105;-78
2021/03/04 10:35:42;;;;;;;;;;;;;;;15.09;46.73;101272.47;5018592;28;6862;-77
2021/03/04 10:38:08;;;;;;;;;;;;;;;14.97;47.27;101271.44;5017497;28;7456;-78
2021/03/04 10:40:33;;;;;;;;;;;;;;;15.03;47.42;101274.16;5002067;28;6800;-78
2021/03/04 10:42:59;;;;;;;;;;;;;;;15.08;46.93;101269.84;5000367;28;7269;-77
2021/03/04 10:45:25;;;;;;;;;;;;;;;15.20;47.34;101267.38;4995618;28;7348;-77
2021/03/04 10:47:50;;;;;;;;;;;;;;;15.20;46.84;101270.88;5000451;28;7380;-78
2021/03/04 10:50:17;;;;;;;;;;;;;;;15.13;47.33;101269.03;4994757;28;7011;-79
2021/03/04 10:52:43;;;;;;;;;;;;;;;15.16;47.38;101263.84;4979396;28;6833;-79
2021/03/04 10:55:09;;;;;;;;;;;;;;;15.25;47.30;101272.69;4995075;28;7259;-77
2021/03/04 10:57:35;;;;;;;;;;;;;;;15.23;47.39;101270.06;4994996;28;7276;-78
2021/03/04 11:00:01;;;;;;;;;;;;;;;15.33;47.08;101269.28;4998433;28;7257;-77
2021/03/04 11:02:27;;;;;;;;;;;;;;;15.48;47.50;101261.63;4993432;28;7241;-77
2021/03/04 11:04:52;;;;;;;;;;;;;;;15.55;47.20;101261.69;4993824;28;6859;-78
2021/03/04 11:07:18;;;;;;;;;;;;;;;15.66;47.33;101262.72;5002007;28;7066;-77
2021/03/04 11:09:43;;;;;;;;;;;;;;;15.80;46.94;101251.50;4995435;28;8307;-77
2021/03/04 11:12:09;;;;;;;;;;;;;;;15.79;47.28;101254.13;5016298;28;6780;-78
2021/03/04 11:14:34;;;;;;;;;;;;;;;16.05;46.41;101250.03;4995628;28;6800;-82
2021/03/04 11:17:00;;;;;;;;;;;;;;;16.25;45.79;101247.56;4987496;28;6855;-79
2021/03/04 11:19:26;;;;;;;;;;;;;;;16.47;45.72;101242.47;5009541;28;7186;-76
2021/03/04 11:21:51;;;;;;;;;;;;;;;16.67;44.88;101235.66;5002597;28;6788;-76
2021/03/04 11:24:17;;;;;;;;;;;;;;;17.05;44.20;101237.63;5017446;28;7103;-75
2021/03/04 11:26:42;;;;;;;;;;;;;;;17.26;44.12;101241.19;5016687;28;7606;-75
2021/03/04 11:29:08;;;;;;;;;;;;;;;17.24;44.19;101249.94;5003236;28;7179;-75
2021/03/04 11:31:34;;;;;;;;;;;;;;;17.36;43.83;101244.72;5001933;28;8832;-75
2021/03/04 11:34:00;;;;;;;;;;;;;;;17.55;43.63;101236.03;5013628;28;6965;-76
2021/03/04 11:36:27;;;;;;;;;;;;;;;17.71;43.27;101226.47;5016550;28;7311;-77
2021/03/04 11:38:53;;;;;;;;;;;;;;;17.86;43.11;101231.75;5000143;28;6883;-76
2021/03/04 11:41:18;;;;;;;;;;;;;;;17.95;43.01;101222.97;5001197;28;7079;-76
2021/03/04 11:43:44;;;;;;;;;;;;;;;17.97;43.18;101215.09;5002808;28;6795;-79
2021/03/04 11:46:11;;;;;;;;;;;;;;;17.92;43.32;101215.97;5018704;28;6788;-76
2021/03/04 11:48:36;;;;;;;;;;;;;;;17.89;43.34;101212.47;5017521;28;7166;-77
2021/03/04 11:51:02;;;;;;;;;;;;;;;17.88;43.23;101208.09;4997780;28;7190;-76
2021/03/04 11:53:27;;;;;;;;;;;;;;;17.79;43.89;101198.44;5014214;28;7274;-76
2021/03/04 11:55:53;;;;;;;;;;;;;;;17.81;43.52;101195.81;5001104;28;7051;-76
2021/03/04 11:58:18;;;;;;;;;;;;;;;17.78;43.94;101207.19;4997565;28;7168;-76
2021/03/04 12:00:44;;;;;;;;;;;;;;;17.79;44.09;101193.19;4999937;28;6948;-80
2021/03/04 12:03:09;;;;;;;;;;;;;;;17.84;43.85;101196.72;5002824;28;6818;-77
2021/03/04 12:05:35;;;;;;;;;;;;;;;17.87;43.66;101191.44;5003819;28;14062;-82
2021/03/04 12:08:01;;;;;;;;;;;;;;;18.02;43.37;101189.69;5002801;28;7036;-79
2021/03/04 12:10:26;;;;;;;;;;;;;;;18.28;43.01;101185.31;5018503;28;7471;-79
2021/03/04 12:12:52;;;;;;;;;;;;;;;18.58;42.54;101181.72;5002133;28;6813;-81
2021/03/04 12:15:17;;;;;;;;;;;;;;;18.82;41.78;101186.97;4994506;28;7367;-79
2021/03/04 12:17:56;;;;;;;;;;;;;;;19.40;40.64;101169.97;5010665;28;6795;-79
2021/03/04 12:20:22;;;;;;;;;;;;;;;19.63;40.12;101165.47;4994438;28;7130;-83
2021/03/04 12:22:48;;;;;;;;;;;;;;;19.63;40.30;101162.84;4987156;28;8483;-78
2021/03/04 12:25:13;;;;;;;;;;;;;;;19.67;40.57;101155.78;4975909;28;6803;-78
2021/03/04 12:27:39;;;;;;;;;;;;;;;19.68;40.42;101160.16;5000779;28;7095;-75
2021/03/04 12:30:06;;;;;;;;;;;;;;;19.54;41.20;101156.75;4992567;28;7237;-82
2021/03/04 12:32:33;;;;;;;;;;;;;;;19.21;41.55;101157.78;4992142;28;7326;-80
2021/03/04 12:34:59;;;;;;;;;;;;;;;18.99;41.91;101152.66;4987700;28;8278;-79
2021/03/04 12:37:24;;;;;;;;;;;;;;;18.79;42.70;101158.00;5002702;28;7298;-80
2021/03/04 12:39:50;;;;;;;;;;;;;;;18.73;42.95;101144.00;5002390;28;6791;-79
2021/03/04 12:42:15;;;;;;;;;;;;;;;18.76;42.82;101141.34;5016712;28;7291;-80
2021/03/04 12:44:45;;;;;;;;;;;;;;;18.88;42.67;101138.69;4989981;28;7269;-80
2021/03/04 12:47:11;;;;;;;;;;;;;;;18.94;42.34;101133.38;4958672;28;12809;-79
2021/03/04 12:49:37;;;;;;;;;;;;;;;18.92;42.36;101132.50;5002035;28;11276;-80
2021/03/04 12:52:02;;;;;;;;;;;;;;;18.81;42.29;101134.31;4957057;28;7047;-80
2021/03/04 12:54:28;;;;;;;;;;;;;;;18.69;42.95;101140.50;4980488;28;8520;-80
2021/03/04 12:56:55;;;;;;;;;;;;;;;18.57;43.00;101140.50;4996251;28;8397;-80